Time;durP1;ratioP1;P1;durP2;ratioP2;P2;SDS_P1;SDS_P2;PMS_P1;PMS_P2;Temp;Humidity;BMP_temperature;BMP_pressure;BME280_temperature;BME280_humidity;BME280_pressure;Samples;Min_cycle;Max_cycle;Signal;HPM_P1;HPM_P2
2023/05/17 00:01:49;;;;;;;67.70;7.25;;;10.80;87.60;;;;;;4904961;29;20174;-88
2023/05/17 00:04:15;;;;;;;69.18;6.50;;;10.90;90.00;;;;;;4903900;29;20534;-88
2023/05/17 00:06:41;;;;;;;66.57;6.25;;;10.80;91.20;;;;;;4904742;29;20214;-88
2023/05/17 00:09:08;;;;;;;65.95;6.05;;;10.80;91.90;;;;;;4904181;29;20174;-88
2023/05/17 00:11:33;;;;;;;65.82;5.50;;;10.70;93.20;;;;;;4905044;29;20170;-87
2023/05/17 00:13:59;;;;;;;71.10;7.77;;;10.70;92.20;;;;;;4905323;29;20198;-88
2023/05/17 00:16:29;;;;;;;65.40;6.00;;;10.60;96.80;;;;;;4904382;29;20217;-88
2023/05/17 00:18:55;;;;;;;82.07;7.00;;;10.50;98.60;;;;;;4902547;29;20194;-88
2023/05/17 00:21:20;;;;;;;67.05;5.50;;;10.40;99.90;;;;;;4904812;29;20160;-88
2023/05/17 00:23:46;;;;;;;67.50;5.90;;;10.50;99.90;;;;;;4904771;29;20164;-88
2023/05/17 00:26:15;;;;;;;71.20;5.97;;;10.50;99.90;;;;;;4903098;29;20440;-88
2023/05/17 00:28:46;;;;;;;69.28;4.97;;;10.50;99.90;;;;;;4904401;29;20445;-88
2023/05/17 00:31:12;;;;;;;68.57;5.25;;;10.60;99.60;;;;;;4904457;29;20233;-88
2023/05/17 00:33:52;;;;;;;68.82;5.93;;;10.60;99.90;;;;;;4902569;29;20170;-88
2023/05/17 00:36:18;;;;;;;68.57;5.18;;;10.50;99.90;;;;;;4903118;29;20700;-88
2023/05/17 00:38:47;;;;;;;73.85;6.45;;;10.30;99.90;;;;;;4903423;29;20190;-88
2023/05/17 00:41:14;;;;;;;68.05;6.82;;;10.30;99.90;;;;;;4902634;29;20179;-88
2023/05/17 00:43:40;;;;;;;69.38;6.53;;;10.30;99.90;;;;;;4904980;29;20166;-88
2023/05/17 00:46:06;;;;;;;66.97;5.20;;;10.40;99.90;;;;;;4903547;29;20198;-88
2023/05/17 00:48:35;;;;;;;64.93;5.10;;;10.30;99.90;;;;;;4903520;29;20538;-88
2023/05/17 00:51:02;;;;;;;66.25;5.47;;;10.20;99.90;;;;;;4902626;29;20174;-88
2023/05/17 00:53:36;;;;;;;69.43;6.65;;;10.20;99.90;;;;;;4903574;29;20627;-88
2023/05/17 00:56:05;;;;;;;68.20;5.45;;;10.10;99.90;;;;;;4903043;29;20205;-88
2023/05/17 00:58:36;;;;;;;67.65;6.55;;;10.10;99.90;;;;;;4902507;29;20677;-88
2023/05/17 01:01:05;;;;;;;67.00;5.65;;;10.20;99.90;;;;;;4902922;29;20199;-88
2023/05/17 01:03:35;;;;;;;70.00;5.82;;;10.10;99.90;;;;;;4902708;29;20174;-88
2023/05/17 01:06:05;;;;;;;67.88;5.30;;;10.10;99.90;;;;;;4902015;29;20566;-89
2023/05/17 01:08:47;;;;;;;;;;;;;;;;;;;;;
2023/05/17 01:11:35;;;;;;;66.50;5.35;;;10.00;99.90;;;;;;4902790;29;20182;-89
2023/05/17 01:14:32;;;;;;;70.47;6.60;;;9.90;99.90;;;;;;4902348;29;20570;-88
2023/05/17 01:17:08;;;;;;;68.88;6.10;;;9.90;99.90;;;;;;4901785;29;20634;-88
2023/05/17 01:19:35;;;;;;;73.57;5.75;;;9.90;99.90;;;;;;4902468;29;20189;-88
2023/05/17 01:22:48;;;;;;;67.13;7.30;;;9.80;99.90;;;;;;4901187;29;20185;-88
2023/05/17 01:25:40;;;;;;;67.38;6.45;;;9.80;99.90;;;;;;4900780;29;20183;-88
2023/05/17 01:28:13;;;;;;;67.55;6.13;;;9.80;99.90;;;;;;4901925;29;20562;-88
2023/05/17 01:30:46;;;;;;;70.05;7.22;;;9.80;99.90;;;;;;4902834;29;20243;-88
2023/05/17 01:33:19;;;;;;;67.10;6.25;;;9.80;99.90;;;;;;4901182;29;20174;-89
2023/05/17 01:35:45;;;;;;;71.90;6.35;;;9.80;99.90;;;;;;4900673;29;20209;-88
2023/05/17 01:38:16;;;;;;;70.50;7.38;;;9.70;99.90;;;;;;4901005;29;20193;-88
2023/05/17 01:41:17;;;;;;;69.97;7.43;;;9.80;99.90;;;;;;4899089;29;20226;-88
2023/05/17 01:43:58;;;;;;;68.03;7.45;;;9.60;99.90;;;;;;4886701;29;20181;-88
2023/05/17 01:46:52;;;;;;;70.15;8.27;;;9.50;99.90;;;;;;4900060;29;20679;-88
2023/05/17 01:49:46;;;;;;;69.88;8.88;;;9.40;99.90;;;;;;4899693;29;20218;-88
2023/05/17 01:52:36;;;;;;;69.05;9.77;;;9.30;99.90;;;;;;4898884;29;20298;-88
2023/05/17 01:55:28;;;;;;;76.10;9.80;;;9.10;99.90;;;;;;4898841;29;20174;-88
2023/05/17 01:58:42;;;;;;;69.63;11.48;;;9.00;99.90;;;;;;4900031;29;20201;-88
2023/05/17 02:01:19;;;;;;;68.50;11.10;;;9.00;99.90;;;;;;4898636;29;20178;-88
2023/05/17 02:03:56;;;;;;;71.10;12.20;;;8.90;99.90;;;;;;4899325;29;20173;-88
2023/05/17 02:06:35;;;;;;;;;;;;;;;;;;;;;
2023/05/17 02:09:05;;;;;;;71.82;13.55;;;8.70;99.90;;;;;;4901175;29;20161;-88
2023/05/17 02:11:43;;;;;;;69.45;16.08;;;8.60;99.90;;;;;;4898440;29;20186;-88
2023/05/17 02:14:10;;;;;;;70.75;17.35;;;8.50;99.90;;;;;;4899479;29;20201;-88
2023/05/17 02:16:44;;;;;;;71.10;18.73;;;8.50;99.90;;;;;;4899541;29;20665;-88
2023/05/17 02:19:13;;;;;;;74.65;18.52;;;8.50;99.90;;;;;;4898978;29;20288;-88
2023/05/17 02:21:41;;;;;;;71.50;15.57;;;8.60;99.90;;;;;;4898796;29;20204;-88
2023/05/17 02:24:11;;;;;;;72.53;18.85;;;8.60;99.90;;;;;;4899012;29;20273;-88
2023/05/17 02:27:39;;;;;;;74.03;17.17;;;8.50;99.90;;;;;;4899445;29;20202;-88
2023/05/17 02:29:43;;;;;;;72.40;16.10;;;8.40;99.90;;;;;;4891304;29;20185;-89
2023/05/17 02:32:37;;;;;;;73.38;15.80;;;8.30;99.90;;;;;;4898959;29;20185;-88
2023/05/17 02:35:15;;;;;;;74.68;16.45;;;8.40;99.90;;;;;;4898894;29;20173;-88
2023/05/17 02:38:06;;;;;;;71.53;15.25;;;8.40;99.90;;;;;;4898278;29;20209;-88
2023/05/17 02:40:37;;;;;;;72.10;17.08;;;8.30;99.90;;;;;;4898183;29;20185;-88
2023/05/17 02:43:06;;;;;;;73.18;17.30;;;8.30;99.90;;;;;;4898338;29;20192;-89
2023/05/17 02:45:40;;;;;;;71.70;16.58;;;8.30;99.90;;;;;;4898100;29;20265;-88
2023/05/17 02:48:10;;;;;;;75.38;19.23;;;8.40;99.90;;;;;;4897969;29;20174;-88
2023/05/17 02:50:45;;;;;;;80.03;17.65;;;8.30;99.90;;;;;;4897875;29;20271;-88
2023/05/17 02:53:35;;;;;;;72.70;17.00;;;8.30;99.90;;;;;;4898181;29;20182;-88
2023/05/17 02:56:11;;;;;;;74.90;14.43;;;8.30;99.90;;;;;;4912598;23;21005;-88
2023/05/17 02:58:43;;;;;;;70.63;14.65;;;8.30;99.90;;;;;;4898011;29;20198;-88
2023/05/17 03:01:26;;;;;;;77.57;16.45;;;8.20;99.90;;;;;;4898908;29;20260;-88
2023/05/17 03:03:56;;;;;;;72.82;15.32;;;8.20;99.90;;;;;;4898866;29;20160;-88
2023/05/17 03:06:33;;;;;;;75.95;18.27;;;8.20;99.90;;;;;;4897851;29;20254;-89
2023/05/17 03:09:07;;;;;;;77.82;16.80;;;8.10;99.90;;;;;;4895466;29;20233;-89
2023/05/17 03:12:05;;;;;;;74.05;15.15;;;8.00;99.90;;;;;;4896635;29;20185;-88
2023/05/17 03:14:41;;;;;;;74.68;12.18;;;8.00;99.90;;;;;;4900778;29;20182;-88
2023/05/17 03:17:16;;;;;;;74.82;14.90;;;8.00;99.90;;;;;;4900860;29;20197;-88
2023/05/17 03:19:48;;;;;;;72.57;17.45;;;8.00;99.90;;;;;;4901952;29;20200;-89
2023/05/17 03:22:41;;;;;;;74.00;16.42;;;8.00;99.90;;;;;;4902247;29;20170;-88
2023/05/17 03:25:35;;;;;;;71.75;14.80;;;8.00;99.90;;;;;;4892672;29;20269;-88
2023/05/17 03:28:24;;;;;;;70.93;13.75;;;7.90;99.90;;;;;;4902198;29;20170;-89
2023/05/17 03:31:02;;;;;;;72.72;17.05;;;7.90;99.90;;;;;;4900580;29;20653;-89
2023/05/17 03:33:45;;;;;;;74.45;15.60;;;7.80;99.90;;;;;;4899646;29;20213;-88
2023/05/17 03:36:20;;;;;;;71.15;13.65;;;7.90;99.90;;;;;;4900516;29;20201;-88
2023/05/17 03:39:09;;;;;;;70.90;13.52;;;7.80;99.90;;;;;;4901641;29;20590;-88
2023/05/17 03:45:01;;;;;;;71.25;13.07;;;7.80;99.90;;;;;;4902326;29;20645;-88
2023/05/17 03:47:42;;;;;;;78.13;13.35;;;7.80;99.90;;;;;;4900411;29;20197;-89
2023/05/17 03:50:18;;;;;;;71.88;14.43;;;8.00;99.90;;;;;;4900506;29;20264;-88
2023/05/17 03:53:01;;;;;;;72.03;12.60;;;8.00;99.90;;;;;;4900670;29;20188;-89
2023/05/17 03:58:46;;;;;;;72.45;12.38;;;8.30;99.90;;;;;;4901168;29;20217;-88
2023/05/17 04:01:19;;;;;;;72.63;11.07;;;8.30;99.90;;;;;;4899881;29;20197;-88
2023/05/17 04:04:03;;;;;;;73.05;10.57;;;8.30;99.90;;;;;;4899536;29;20174;-88
2023/05/17 04:06:58;;;;;;;73.68;10.63;;;8.30;99.90;;;;;;4901337;29;20276;-88
2023/05/17 04:10:07;;;;;;;74.28;9.30;;;8.40;99.90;;;;;;4900099;29;20169;-89
2023/05/17 04:12:34;;;;;;;71.72;10.10;;;8.40;99.90;;;;;;4899318;29;20186;-88
2023/05/17 04:15:06;;;;;;;74.40;8.48;;;8.50;99.90;;;;;;4900243;29;20178;-88
2023/05/17 04:17:36;;;;;;;72.80;9.40;;;8.60;99.90;;;;;;4900287;29;20201;-88
2023/05/17 04:20:18;;;;;;;74.63;9.43;;;8.70;99.90;;;;;;4899459;29;20185;-88
2023/05/17 04:22:53;;;;;;;75.40;11.05;;;8.70;99.90;;;;;;4899801;29;20189;-89
2023/05/17 04:25:21;;;;;;;74.85;10.68;;;8.80;99.90;;;;;;4899807;29;20252;-89
2023/05/17 04:28:02;;;;;;;;;;;;;;;;;;;;;
2023/05/17 04:31:00;;;;;;;77.10;11.88;;;9.00;99.90;;;;;;4901742;29;20159;-88
2023/05/17 04:33:30;;;;;;;79.45;12.60;;;9.00;99.90;;;;;;4900599;29;20205;-88
2023/05/17 04:36:15;;;;;;;79.70;13.82;;;9.10;99.90;;;;;;4900286;29;20206;-88
2023/05/17 04:39:12;;;;;;;77.43;12.00;;;9.20;99.90;;;;;;4900225;29;20566;-88
2023/05/17 04:41:48;;;;;;;84.47;11.35;;;9.10;99.90;;;;;;4900413;29;20170;-88
2023/05/17 04:44:25;;;;;;;77.30;9.75;;;9.10;99.90;;;;;;4900337;29;20264;-89
2023/05/17 04:46:56;;;;;;;73.35;10.32;;;9.10;99.90;;;;;;4899462;29;20201;-88
2023/05/17 04:49:40;;;;;;;78.28;9.75;;;9.10;99.90;;;;;;4900228;29;20186;-88
2023/05/17 04:52:13;;;;;;;73.05;10.63;;;9.30;99.90;;;;;;4897467;29;20178;-88
2023/05/17 04:55:18;;;;;;;74.03;10.77;;;9.30;99.90;;;;;;4900121;29;20174;-88
2023/05/17 04:57:49;;;;;;;76.85;10.38;;;9.40;99.90;;;;;;4900278;29;20193;-88
2023/05/17 05:00:35;;;;;;;77.53;9.45;;;9.40;99.90;;;;;;4900476;29;20177;-88
2023/05/17 05:03:18;;;;;;;73.55;10.38;;;9.50;99.90;;;;;;4900024;29;20192;-88
2023/05/17 05:05:47;;;;;;;78.35;9.93;;;9.60;99.90;;;;;;4899592;29;20293;-89
2023/05/17 05:08:20;;;;;;;75.03;10.85;;;9.70;99.90;;;;;;4899649;29;20273;-88
2023/05/17 05:11:16;;;;;;;75.20;11.70;;;9.80;99.90;;;;;;4901414;29;20162;-88
2023/05/17 05:13:46;;;;;;;85.75;12.23;;;9.90;99.90;;;;;;4900252;29;20256;-88
2023/05/17 05:16:17;;;;;;;78.47;13.57;;;10.10;99.90;;;;;;4900424;29;20704;-89
2023/05/17 05:19:07;;;;;;;83.05;15.60;;;10.30;99.90;;;;;;4901243;29;20274;-88
2023/05/17 05:22:04;;;;;;;77.15;17.10;;;10.40;99.90;;;;;;4900136;29;20209;-88
2023/05/17 05:24:41;;;;;;;81.78;17.88;;;10.40;99.90;;;;;;4899633;29;20270;-88
2023/05/17 05:27:08;;;;;;;77.53;16.90;;;10.40;99.90;;;;;;4899354;29;20198;-88
2023/05/17 05:30:05;;;;;;;81.18;17.42;;;10.40;99.90;;;;;;4899819;29;20189;-88
2023/05/17 05:32:40;;;;;;;88.75;23.65;;;10.40;99.90;;;;;;4901428;29;20209;-88
2023/05/17 05:35:11;;;;;;;83.78;18.90;;;10.40;99.90;;;;;;4899915;29;20643;-88
2023/05/17 05:37:44;;;;;;;79.00;19.80;;;10.40;99.90;;;;;;4899923;29;20259;-88
2023/05/17 05:40:16;;;;;;;78.40;18.25;;;10.50;99.90;;;;;;4902403;29;20170;-88
2023/05/17 05:42:46;;;;;;;77.78;18.27;;;10.60;99.90;;;;;;4902358;29;20995;-88
2023/05/17 05:45:12;;;;;;;82.47;19.15;;;10.60;99.90;;;;;;4901379;29;20178;-88
2023/05/17 05:47:38;;;;;;;86.80;19.90;;;10.60;99.90;;;;;;4902133;29;20193;-88
2023/05/17 05:50:05;;;;;;;82.23;17.00;;;10.60;99.90;;;;;;4903516;29;20429;-88
2023/05/17 05:52:34;;;;;;;89.53;18.83;;;10.50;99.90;;;;;;4900759;29;20890;-88
2023/05/17 05:55:00;;;;;;;80.93;20.35;;;10.50;99.90;;;;;;4901016;29;20170;-88
2023/05/17 05:57:29;;;;;;;78.57;17.70;;;10.50;99.90;;;;;;4901778;29;20198;-88
2023/05/17 05:59:55;;;;;;;85.80;21.02;;;10.50;99.90;;;;;;4901591;29;20414;-89
2023/05/17 06:02:22;;;;;;;80.90;20.27;;;10.40;99.90;;;;;;4902868;29;20176;-89
2023/05/17 06:04:48;;;;;;;86.03;21.60;;;10.40;99.90;;;;;;4901125;29;20197;-88
2023/05/17 06:07:14;;;;;;;84.20;18.90;;;10.40;99.90;;;;;;4901885;29;20234;-88
2023/05/17 06:09:48;;;;;;;82.78;16.70;;;10.40;99.90;;;;;;4902750;29;20924;-88
2023/05/17 06:12:14;;;;;;;79.30;18.23;;;10.40;99.90;;;;;;4901294;29;20206;-88
2023/05/17 06:14:42;;;;;;;91.13;20.80;;;10.40;99.90;;;;;;4901486;29;20195;-88
2023/05/17 06:17:08;;;;;;;81.05;16.45;;;10.40;99.90;;;;;;4902526;29;20185;-89
2023/05/17 06:19:34;;;;;;;97.47;17.43;;;10.40;99.90;;;;;;4902370;29;20189;-88
2023/05/17 06:22:02;;;;;;;96.73;19.70;;;10.40;99.90;;;;;;4902089;29;20170;-88
2023/05/17 06:24:28;;;;;;;97.45;20.83;;;10.30;99.90;;;;;;4902469;29;20169;-88
2023/05/17 06:26:53;;;;;;;95.30;22.20;;;10.30;99.90;;;;;;4902137;29;20663;-90
2023/05/17 06:29:19;;;;;;;92.47;21.77;;;10.40;99.90;;;;;;4901005;29;20174;-88
2023/05/17 06:31:48;;;;;;;96.90;16.43;;;10.50;99.90;;;;;;4900130;29;20174;-88
2023/05/17 06:34:13;;;;;;;102.43;18.45;;;10.60;99.90;;;;;;4900682;29;20430;-87
2023/05/17 06:36:39;;;;;;;94.50;17.37;;;10.80;99.90;;;;;;4900663;29;20192;-88
2023/05/17 06:39:05;;;;;;;90.30;18.57;;;10.70;99.90;;;;;;4899553;29;20215;-87
2023/05/17 06:41:31;;;;;;;94.10;22.42;;;10.80;99.90;;;;;;4885077;29;20260;-87
2023/05/17 06:43:56;;;;;;;95.83;22.17;;;10.80;99.90;;;;;;4899483;29;20218;-87
2023/05/17 06:46:22;;;;;;;87.70;23.13;;;10.80;99.90;;;;;;4901269;29;20186;-88
2023/05/17 06:48:47;;;;;;;95.17;24.47;;;10.80;99.90;;;;;;4901890;29;20193;-88
2023/05/17 06:51:13;;;;;;;96.83;29.47;;;11.00;99.90;;;;;;4906149;29;20194;-88
2023/05/17 06:53:39;;;;;;;93.47;30.70;;;11.20;99.90;;;;;;4904935;29;20664;-88
2023/05/17 06:56:04;;;;;;;92.70;29.07;;;11.20;99.90;;;;;;4906040;29;20192;-88
2023/05/17 06:58:31;;;;;;;88.80;24.80;;;11.30;99.90;;;;;;4906482;29;20196;-89
2023/05/17 07:01:00;;;;;;;88.60;22.23;;;11.30;99.90;;;;;;4906221;29;20185;-88
2023/05/17 07:03:25;;;;;;;89.22;20.73;;;11.20;99.90;;;;;;4904897;29;20204;-88
2023/05/17 07:05:51;;;;;;;92.17;22.90;;;11.30;99.90;;;;;;4904222;29;20670;-88
2023/05/17 07:08:17;;;;;;;85.10;17.50;;;11.30;99.90;;;;;;4904648;29;20422;-88
2023/05/17 07:10:43;;;;;;;85.77;16.57;;;11.40;99.90;;;;;;4906846;29;20518;-88
2023/05/17 07:13:08;;;;;;;81.77;14.00;;;11.30;99.90;;;;;;4905116;29;20546;-88
2023/05/17 07:15:34;;;;;;;80.77;10.67;;;11.50;99.90;;;;;;4904985;29;20181;-87
2023/05/17 07:17:59;;;;;;;83.70;11.10;;;11.50;84.90;;;;;;4905994;29;20205;-87
2023/05/17 07:20:25;;;;;;;77.40;9.10;;;11.50;68.80;;;;;;4905076;29;20170;-88
2023/05/17 07:22:51;;;;;;;75.30;10.60;;;11.50;61.50;;;;;;4904724;29;20204;-88
2023/05/17 07:25:17;;;;;;;77.97;11.60;;;11.40;54.40;;;;;;4906712;29;20170;-88
2023/05/17 07:27:43;;;;;;;82.22;13.25;;;11.30;45.00;;;;;;4906338;29;20248;-87
2023/05/17 07:30:10;;;;;;;86.17;11.90;;;11.40;56.70;;;;;;4905135;29;20169;-88
2023/05/17 07:32:39;;;;;;;83.45;15.88;;;11.50;50.70;;;;;;4904177;29;20751;-87
2023/05/17 07:35:05;;;;;;;84.78;15.93;;;11.60;58.20;;;;;;4904586;29;20537;-88
2023/05/17 07:37:31;;;;;;;84.00;14.50;;;11.70;79.50;;;;;;4905500;29;20186;-88
2023/05/17 07:39:59;;;;;;;89.90;14.20;;;11.70;90.00;;;;;;4905753;29;20409;-88
2023/05/17 07:42:25;;;;;;;83.25;15.35;;;11.70;87.10;;;;;;4905302;29;20249;-88
2023/05/17 07:44:51;;;;;;;85.03;13.33;;;11.90;81.40;;;;;;4903860;29;20200;-89
2023/05/17 07:47:16;;;;;;;81.57;14.77;;;12.00;73.20;;;;;;4903949;29;20613;-88
2023/05/17 07:49:42;;;;;;;86.67;17.20;;;12.20;64.00;;;;;;4904947;29;20257;-88
2023/05/17 07:52:07;;;;;;;83.23;15.83;;;12.20;47.90;;;;;;4904264;29;20185;-87
2023/05/17 07:54:33;;;;;;;80.20;11.97;;;12.10;37.30;;;;;;4904590;29;20178;-87
2023/05/17 07:56:59;;;;;;;81.57;11.47;;;12.20;37.60;;;;;;4904851;29;20760;-88
2023/05/17 07:59:25;;;;;;;83.57;11.20;;;12.30;29.70;;;;;;4904256;29;20446;-88
2023/05/17 08:01:51;;;;;;;84.10;10.67;;;12.50;34.40;;;;;;4903223;29;20166;-87
2023/05/17 08:04:18;;;;;;;78.72;9.93;;;12.50;26.30;;;;;;4904178;29;20188;-89
2023/05/17 08:06:47;;;;;;;75.28;9.18;;;12.50;27.20;;;;;;4904158;29;20214;-88
2023/05/17 08:09:15;;;;;;;74.40;8.15;;;12.50;10.40;;;;;;4903311;29;20186;-87
2023/05/17 08:11:44;;;;;;;74.18;8.52;;;12.50;11.00;;;;;;4903838;29;20249;-87
2023/05/17 08:14:14;;;;;;;73.57;8.68;;;12.60;12.40;;;;;;4903316;29;20238;-88
2023/05/17 08:16:45;;;;;;;72.95;8.65;;;12.60;10.30;;;;;;4903318;29;20201;-88
2023/05/17 08:19:12;;;;;;;74.83;7.30;;;12.60;12.00;;;;;;4902418;29;20666;-87
2023/05/17 08:21:38;;;;;;;72.03;7.40;;;12.50;8.10;;;;;;4904317;29;20437;-87
2023/05/17 08:24:04;;;;;;;79.38;7.70;;;12.30;3.40;;;;;;4903415;29;20180;-88
2023/05/17 08:26:30;;;;;;;70.45;6.47;;;12.30;7.00;;;;;;4903961;29;20208;-88
2023/05/17 08:28:56;;;;;;;76.67;7.53;;;12.20;10.80;;;;;;4902826;29;20254;-87
2023/05/17 08:31:21;;;;;;;75.27;7.93;;;12.30;5.10;;;;;;4902438;29;20178;-88
2023/05/17 08:33:47;;;;;;;75.80;7.87;;;12.40;9.50;;;;;;4903704;29;20578;-89
2023/05/17 08:36:12;;;;;;;72.60;6.50;;;12.60;4.50;;;;;;4902986;29;20197;-88
2023/05/17 08:38:38;;;;;;;84.73;6.63;;;12.70;4.60;;;;;;4902177;29;20265;-87
2023/05/17 08:41:05;;;;;;;71.17;6.07;;;12.80;1.00;;;;;;4903966;29;20174;-88
2023/05/17 08:43:31;;;;;;;70.13;6.03;;;12.80;1.00;;;;;;4903714;29;20225;-88
2023/05/17 08:45:58;;;;;;;71.10;6.23;;;12.80;1.00;;;;;;4902873;29;20281;-88
2023/05/17 08:48:25;;;;;;;74.60;6.57;;;12.70;1.00;;;;;;4903361;29;20419;-87
2023/05/17 08:50:54;;;;;;;75.15;6.88;;;12.70;1.00;;;;;;4903259;29;20170;-87
2023/05/17 08:53:20;;;;;;;77.28;6.68;;;12.40;1.00;;;;;;4901757;29;20198;-87
2023/05/17 08:55:48;;;;;;;72.80;5.60;;;12.40;1.00;;;;;;4902009;29;20652;-87
2023/05/17 08:58:18;;;;;;;73.17;5.40;;;12.50;1.00;;;;;;4903529;29;20189;-88
2023/05/17 09:00:45;;;;;;;68.47;5.13;;;12.80;1.00;;;;;;4903837;29;20410;-87
2023/05/17 09:03:16;;;;;;;70.68;4.65;;;12.70;1.00;;;;;;4903480;29;20426;-88
2023/05/17 09:05:42;;;;;;;70.83;4.80;;;12.80;1.00;;;;;;4904519;29;20178;-87
2023/05/17 09:08:12;;;;;;;69.70;4.95;;;12.90;1.00;;;;;;4902447;29;20406;-88
2023/05/17 09:10:41;;;;;;;67.37;4.07;;;13.00;1.00;;;;;;4901578;29;20162;-88
2023/05/17 09:13:10;;;;;;;70.17;4.20;;;13.10;1.00;;;;;;4903876;29;20410;-88
2023/05/17 09:15:36;;;;;;;70.50;5.25;;;13.30;1.00;;;;;;4903778;29;20406;-86
2023/05/17 09:18:02;;;;;;;71.57;4.70;;;13.40;1.00;;;;;;4901699;29;20221;-87
2023/05/17 09:20:35;;;;;;;72.37;4.50;;;13.30;1.00;;;;;;4902597;29;20419;-87
2023/05/17 09:23:53;;;;;;;;;;;;;;;;;;;;;
2023/05/17 09:41:23;;;;;;;69.40;4.23;;;13.60;1.00;;;;;;4787488;30;20200;-85
2023/05/17 09:44:32;;;;;;;73.07;4.27;;;13.80;1.00;;;;;;4786873;29;20915;-85
2023/05/17 09:48:43;;;;;;;;;;;;;;;;;;;;;
2023/05/17 10:01:58;;;;;;;76.43;4.40;;;14.40;1.00;;;;;;4821510;29;20498;-86
2023/05/17 10:05:17;;;;;;;69.17;4.83;;;14.10;1.00;;;;;;4798256;29;20533;-86
2023/05/17 10:08:08;;;;;;;73.73;5.70;;;14.50;1.00;;;;;;4839341;29;20984;-86
2023/05/17 10:11:19;;;;;;;72.03;5.20;;;14.70;1.00;;;;;;4840164;29;20778;-84
2023/05/17 10:15:01;;;;;;;;;;;;;;;;;;;;;
2023/05/17 10:18:13;;;;;;;77.03;5.87;;;15.10;1.00;;;;;;4768447;30;20462;-86
2023/05/17 10:30:49;;;;;;;68.57;5.17;;;15.10;1.00;;;;;;1164325;27;20466;-87
2023/05/17 10:34:30;;;;;;;72.50;5.47;;;15.50;1.00;;;;;;4822177;29;20940;-86
2023/05/17 10:37:32;;;;;;;70.13;6.10;;;15.70;1.00;;;;;;4779866;30;20911;-85
2023/05/17 10:54:19;;;;;;;71.23;8.10;;;15.70;1.00;;;;;;4733461;30;20845;-86
2023/05/17 10:56:54;;;;;;;74.40;8.50;;;15.90;1.00;;;;;;4871678;23;20915;-86
2023/05/17 11:03:42;;;;;;;;;;;;;;;;;;;;;
2023/05/17 11:14:09;;;;;;;;;;;;;;;;;;;;;
2023/05/17 11:21:03;;;;;;;;;;;;;;;;;;;;;
2023/05/17 11:34:05;;;;;;;;;;;;;;;;;;;;;
2023/05/17 11:45:08;;;;;;;;;;;;;;;;;;;;;
2023/05/17 11:48:43;;;;;;;78.23;6.40;;;16.80;1.00;;;;;;4824715;29;20450;-85
2023/05/17 11:51:56;;;;;;;76.57;5.27;;;16.80;1.00;;;;;;4798824;29;20469;-85
2023/05/17 12:02:44;;;;;;;;;;;;;;;;;;;;;
2023/05/17 12:05:49;;;;;;;72.40;5.00;;;16.60;1.00;;;;;;4749834;30;20562;-86
2023/05/17 12:16:25;;;;;;;;;;;;;;;;;;;;;
2023/05/17 12:36:57;;;;;;;70.40;5.00;;;17.30;1.00;;;;;;4845570;29;20452;-85
2023/05/17 12:50:45;;;;;;;;;;;;;;;;;;;;;
2023/05/17 12:54:10;;;;;;;;;;;;;;;;;;;;;
2023/05/17 13:15:00;;;;;;;;;;;;;;;;;;;;;
2023/05/17 13:22:02;;;;;;;;;;;;;;;;;;;;;
2023/05/17 13:44:09;;;;;;;68.33;5.97;;;18.30;1.00;;;;;;4647262;23;20826;-86
2023/05/17 13:54:06;;;;;;;74.50;7.47;;;18.10;1.00;;;;;;4839093;29;20433;-86
2023/05/17 13:56:56;;;;;;;;;;;;;;;;;;;;;
2023/05/17 14:03:38;;;;;;;;;;;;;;;;;;;;;
2023/05/17 14:14:10;;;;;;;72.27;7.10;;;18.40;1.00;;;;;;4750785;30;20798;-87
2023/05/17 14:44:50;;;;;;;;;;;;;;;;;;;;;
2023/05/17 15:23:35;;;;;;;71.53;7.17;;;18.30;1.00;;;;;;4972042;23;20830;-86
2023/05/17 15:26:01;;;;;;;72.90;6.50;;;18.10;1.00;;;;;;4903877;29;20427;-86
2023/05/17 15:28:27;;;;;;;70.57;6.80;;;17.80;1.00;;;;;;4904014;29;20509;-87
2023/05/17 15:31:09;;;;;;;73.90;6.27;;;17.70;1.00;;;;;;4904227;29;20194;-86
2023/05/17 15:33:38;;;;;;;75.37;7.20;;;18.10;1.00;;;;;;4903756;29;20160;-87
2023/05/17 15:36:05;;;;;;;74.67;6.53;;;18.50;1.00;;;;;;4903113;29;20435;-87
2023/05/17 15:38:31;;;;;;;70.67;6.47;;;18.80;1.00;;;;;;4902376;29;20462;-87
2023/05/17 15:41:04;;;;;;;70.00;6.47;;;18.70;1.00;;;;;;4902220;29;20414;-87
2023/05/17 15:43:32;;;;;;;73.70;6.00;;;18.60;1.00;;;;;;4904620;29;20161;-86
2023/05/17 15:45:58;;;;;;;71.23;5.50;;;18.00;1.00;;;;;;4902744;29;20434;-87
2023/05/17 15:48:27;;;;;;;73.20;5.60;;;17.80;1.00;;;;;;4903848;29;20418;-86
2023/05/17 15:50:56;;;;;;;75.33;6.50;;;17.90;1.00;;;;;;4903125;29;20418;-87
2023/05/17 15:53:23;;;;;;;70.60;6.77;;;17.90;1.00;;;;;;4905266;29;20492;-87
2023/05/17 15:55:52;;;;;;;72.87;7.80;;;18.10;1.00;;;;;;4904491;29;20506;-87
2023/05/17 15:58:27;;;;;;;72.80;7.50;;;18.50;1.00;;;;;;4904516;29;20477;-86
2023/05/17 16:00:53;;;;;;;80.23;7.50;;;18.20;1.00;;;;;;4905276;29;20450;-87
2023/05/17 16:03:20;;;;;;;72.67;8.00;;;18.50;1.00;;;;;;4904039;29;20423;-86
2023/05/17 16:05:46;;;;;;;72.47;7.97;;;18.90;1.00;;;;;;4903593;29;20434;-86
2023/05/17 16:08:12;;;;;;;70.57;7.80;;;19.20;1.00;;;;;;4904700;29;20461;-88
2023/05/17 16:10:38;;;;;;;77.30;8.17;;;19.40;1.00;;;;;;4903229;29;20454;-87
2023/05/17 16:13:05;;;;;;;74.53;7.63;;;19.60;1.00;;;;;;4902576;29;20706;-87
2023/05/17 16:15:31;;;;;;;70.17;5.90;;;19.50;1.00;;;;;;4902048;29;20415;-86
2023/05/17 16:17:57;;;;;;;76.53;7.27;;;19.50;1.00;;;;;;4903535;29;20406;-87
2023/05/17 16:20:27;;;;;;;74.47;8.83;;;19.40;1.00;;;;;;4902088;29;20513;-87
2023/05/17 16:22:53;;;;;;;74.30;8.27;;;19.30;1.00;;;;;;4902464;29;20954;-87
2023/05/17 16:25:23;;;;;;;70.57;7.77;;;19.50;1.00;;;;;;4902930;29;20415;-86
2023/05/17 16:27:49;;;;;;;72.47;9.03;;;19.50;1.00;;;;;;4902944;29;20174;-86
2023/05/17 16:30:16;;;;;;;72.70;8.10;;;19.50;1.00;;;;;;4903719;29;20450;-86
2023/05/17 16:32:43;;;;;;;72.50;8.53;;;20.00;1.00;;;;;;4903489;29;20491;-86
2023/05/17 16:35:09;;;;;;;70.97;7.30;;;20.30;1.00;;;;;;4885923;29;20423;-86
2023/05/17 16:37:35;;;;;;;72.90;7.87;;;20.20;1.00;;;;;;4903355;29;20486;-86
2023/05/17 16:40:01;;;;;;;75.63;7.80;;;19.60;1.00;;;;;;4905094;29;20642;-86
2023/05/17 16:42:28;;;;;;;72.07;8.23;;;19.20;1.00;;;;;;4903213;29;20168;-87
2023/05/17 16:44:53;;;;;;;70.70;7.40;;;19.10;1.00;;;;;;4903903;29;20410;-87
2023/05/17 16:47:22;;;;;;;70.10;6.60;;;19.30;1.00;;;;;;4903468;29;20571;-87
2023/05/17 16:49:48;;;;;;;69.40;7.00;;;19.50;1.00;;;;;;4903721;29;20415;-87
2023/05/17 16:52:14;;;;;;;76.20;9.50;;;19.80;1.00;;;;;;4902557;29;20482;-87
2023/05/17 16:54:40;;;;;;;75.33;9.10;;;19.70;1.00;;;;;;4902412;29;20437;-86
2023/05/17 16:57:06;;;;;;;71.60;7.30;;;19.40;1.00;;;;;;4902845;29;20498;-87
2023/05/17 16:59:32;;;;;;;70.17;7.27;;;19.50;1.00;;;;;;4902163;29;20202;-87
2023/05/17 17:01:58;;;;;;;71.57;5.87;;;19.90;1.00;;;;;;4902736;29;20498;-86
2023/05/17 17:04:24;;;;;;;72.87;7.13;;;20.20;1.00;;;;;;4902936;29;20460;-86
2023/05/17 17:06:50;;;;;;;82.80;7.17;;;20.00;1.00;;;;;;4902784;29;20203;-86
2023/05/17 17:09:17;;;;;;;74.20;6.30;;;20.00;1.00;;;;;;4901051;29;20170;-87
2023/05/17 17:11:43;;;;;;;71.80;6.30;;;20.10;1.00;;;;;;4902890;29;20414;-87
2023/05/17 17:14:09;;;;;;;72.50;6.83;;;19.80;1.00;;;;;;4900837;29;20421;-88
2023/05/17 17:16:36;;;;;;;75.87;7.10;;;19.90;1.00;;;;;;4902174;29;20435;-86
2023/05/17 17:19:02;;;;;;;75.37;8.43;;;19.60;1.00;;;;;;4902318;29;20453;-87
2023/05/17 17:21:28;;;;;;;76.80;7.20;;;19.40;1.00;;;;;;4901233;29;20412;-86
2023/05/17 17:23:55;;;;;;;75.03;6.80;;;19.00;1.00;;;;;;4901366;29;20415;-87
2023/05/17 17:26:21;;;;;;;74.60;8.03;;;18.60;1.00;;;;;;4901131;29;20468;-88
2023/05/17 17:28:49;;;;;;;71.47;7.50;;;18.20;1.00;;;;;;4902184;29;20471;-86
2023/05/17 17:31:17;;;;;;;68.67;6.20;;;18.10;1.00;;;;;;4901215;29;20181;-87
2023/05/17 17:33:42;;;;;;;89.83;7.77;;;18.40;1.00;;;;;;4901221;29;20417;-86
2023/05/17 17:36:10;;;;;;;72.83;10.00;;;18.30;1.00;;;;;;4901906;29;20434;-87
2023/05/17 17:38:35;;;;;;;74.97;7.30;;;18.30;1.00;;;;;;4900852;29;20638;-87
2023/05/17 17:41:01;;;;;;;72.57;7.00;;;17.90;1.00;;;;;;4900895;29;20446;-87
2023/05/17 17:43:27;;;;;;;71.70;6.33;;;17.60;1.00;;;;;;4902858;29;20406;-87
2023/05/17 17:45:53;;;;;;;70.83;6.57;;;17.30;1.00;;;;;;4900911;29;20214;-86
2023/05/17 17:48:18;;;;;;;69.83;5.80;;;17.10;1.00;;;;;;4902065;29;20748;-86
2023/05/17 17:50:44;;;;;;;70.67;5.67;;;16.80;1.00;;;;;;4902624;29;20181;-86
2023/05/17 17:53:10;;;;;;;71.97;5.30;;;16.80;1.00;;;;;;4902411;29;20182;-86
2023/05/17 17:55:35;;;;;;;72.20;5.43;;;16.80;1.00;;;;;;4902502;29;20287;-87
2023/05/17 17:58:01;;;;;;;72.60;5.87;;;16.90;1.00;;;;;;4902051;29;20199;-87
2023/05/17 18:00:27;;;;;;;78.80;6.00;;;16.80;1.00;;;;;;4901814;29;20177;-87
2023/05/17 18:02:54;;;;;;;73.47;4.77;;;16.60;1.00;;;;;;4901935;29;20634;-87